Time;durP1;ratioP1;P1;durP2;ratioP2;P2;SDS_P1;SDS_P2;PMS_P1;PMS_P2;Temp;Humidity;BMP_temperature;BMP_pressure;BME280_temperature;BME280_humidity;BME280_pressure;Samples;Min_cycle;Max_cycle;Signal;HPM_P1;HPM_P2
2022/11/03 00:02:03;;;;;;;8.23;1.85;;;12.60;73.30;;;;;;4897961;29;20417;-34
2022/11/03 00:04:28;;;;;;;6.13;1.73;;;12.60;73.40;;;;;;4898675;29;20463;-35
2022/11/03 00:06:54;;;;;;;8.20;2.17;;;12.50;73.60;;;;;;4898395;29;20025;-34
2022/11/03 00:09:21;;;;;;;8.40;2.05;;;12.60;73.60;;;;;;4898410;29;20027;-34
2022/11/03 00:11:50;;;;;;;7.55;2.60;;;12.60;73.60;;;;;;4898527;29;20024;-33
2022/11/03 00:14:16;;;;;;;7.72;1.83;;;12.60;73.70;;;;;;4898268;29;20040;-33
2022/11/03 00:16:43;;;;;;;8.02;2.20;;;12.60;73.70;;;;;;4881508;29;20029;-34
2022/11/03 00:19:09;;;;;;;8.13;2.33;;;12.50;73.70;;;;;;4898215;29;20021;-33
2022/11/03 00:21:35;;;;;;;7.70;1.80;;;12.60;73.80;;;;;;4898221;29;20016;-42
2022/11/03 00:24:01;;;;;;;7.32;1.80;;;12.60;73.80;;;;;;4898138;29;20083;-34
2022/11/03 00:26:29;;;;;;;8.15;1.63;;;12.60;73.80;;;;;;4898166;29;20488;-35
2022/11/03 00:28:59;;;;;;;7.65;1.88;;;12.60;73.80;;;;;;4898166;29;20476;-34
2022/11/03 00:31:30;;;;;;;7.10;1.60;;;12.60;73.80;;;;;;4897967;29;20035;-40
2022/11/03 00:33:56;;;;;;;7.38;1.67;;;12.60;73.90;;;;;;4897936;29;20115;-35
2022/11/03 00:36:27;;;;;;;8.82;1.75;;;12.60;73.90;;;;;;4881060;29;20073;-33
2022/11/03 00:38:53;;;;;;;9.32;1.65;;;12.60;74.00;;;;;;4897930;29;20029;-33
2022/11/03 00:41:19;;;;;;;6.60;2.08;;;12.60;74.00;;;;;;4898016;29;20164;-33
2022/11/03 00:43:46;;;;;;;6.80;1.67;;;12.60;74.00;;;;;;4897821;29;20036;-34
2022/11/03 00:46:12;;;;;;;7.55;1.80;;;12.60;74.10;;;;;;4897557;29;20029;-32
2022/11/03 00:48:38;;;;;;;6.53;1.67;;;12.60;74.10;;;;;;4880955;29;20036;-42
2022/11/03 00:51:07;;;;;;;7.30;1.65;;;12.60;74.20;;;;;;4897830;29;20029;-33
2022/11/03 00:53:35;;;;;;;5.07;1.73;;;12.50;74.20;;;;;;4897416;29;20507;-34
2022/11/03 00:56:01;;;;;;;5.18;1.60;;;12.50;74.20;;;;;;4897332;29;20032;-33
2022/11/03 00:58:27;;;;;;;7.28;1.95;;;12.50;74.30;;;;;;4897471;29;20025;-34
2022/11/03 01:01:06;;;;;;;9.43;1.80;;;12.50;74.50;;;;;;4897222;29;20103;-34
2022/11/03 01:03:33;;;;;;;6.35;1.40;;;12.40;74.50;;;;;;4897769;29;20065;-34
2022/11/03 01:08:44;;;;;;;6.68;1.95;;;12.40;74.70;;;;;;4897583;29;20047;-35
2022/11/03 01:14:00;;;;;;;5.32;1.40;;;12.40;74.90;;;;;;4896678;29;20039;-32
2022/11/03 01:16:26;;;;;;;5.82;1.58;;;12.30;74.90;;;;;;4897067;29;20040;-34
2022/11/03 01:18:53;;;;;;;9.00;1.92;;;12.30;75.10;;;;;;4897188;29;20027;-33
2022/11/03 01:21:19;;;;;;;5.55;1.48;;;12.30;75.20;;;;;;4896904;29;20020;-34
2022/11/03 01:23:44;;;;;;;7.45;1.98;;;12.30;75.20;;;;;;4896998;29;20029;-33
2022/11/03 01:26:11;;;;;;;6.65;1.70;;;12.20;75.20;;;;;;4896624;29;20028;-33
2022/11/03 01:28:39;;;;;;;6.30;1.67;;;12.20;75.30;;;;;;4879853;29;20052;-34
2022/11/03 01:31:10;;;;;;;4.00;1.70;;;12.20;75.40;;;;;;4879620;29;20084;-33
2022/11/03 01:33:36;;;;;;;8.07;2.10;;;12.20;75.70;;;;;;4896503;29;20067;-35
2022/11/03 01:36:02;;;;;;;7.38;1.75;;;12.20;75.80;;;;;;4896374;29;20164;-33
2022/11/03 01:38:31;;;;;;;8.50;1.80;;;12.20;75.80;;;;;;4896638;29;20060;-34
2022/11/03 01:40:57;;;;;;;7.97;1.60;;;12.10;76.20;;;;;;4896534;29;20048;-34
2022/11/03 01:43:26;;;;;;;5.05;1.70;;;12.20;76.50;;;;;;4896434;29;20029;-34
2022/11/03 01:46:11;;;;;;;11.18;2.13;;;12.10;76.40;;;;;;4896406;29;20203;-34
2022/11/03 01:48:43;;;;;;;8.85;1.85;;;12.10;76.40;;;;;;4896499;29;20080;-34
2022/11/03 01:51:11;;;;;;;10.05;1.85;;;12.10;76.40;;;;;;4896402;29;20028;-34
2022/11/03 01:53:41;;;;;;;7.60;1.88;;;12.10;76.50;;;;;;4896582;29;20025;-35
2022/11/03 01:56:08;;;;;;;8.13;2.13;;;12.10;76.50;;;;;;4896170;29;20033;-34
2022/11/03 01:58:36;;;;;;;7.18;1.90;;;12.10;76.50;;;;;;4896054;29;20056;-34
2022/11/03 02:06:11;;;;;;;6.07;1.75;;;12.00;76.70;;;;;;4894603;29;20087;-79
2022/11/03 02:08:42;;;;;;;7.03;1.80;;;12.00;76.80;;;;;;4879642;29;20059;-81
2022/11/03 02:12:09;;;;;;;6.15;1.98;;;12.00;76.80;;;;;;4879736;29;20506;-81
2022/11/03 02:14:04;;;;;;;10.00;2.00;;;12.00;76.90;;;;;;4883823;29;20076;-80
2022/11/03 02:16:32;;;;;;;7.15;2.10;;;11.90;77.20;;;;;;4879639;29;20075;-80
2022/11/03 02:19:01;;;;;;;5.30;1.50;;;11.90;77.30;;;;;;4896877;29;20021;-81
2022/11/03 02:21:35;;;;;;;6.97;1.80;;;11.90;77.40;;;;;;4879737;29;20107;-80
2022/11/03 02:24:12;;;;;;;6.65;2.00;;;11.90;77.50;;;;;;4879655;29;20025;-81
2022/11/03 02:26:39;;;;;;;5.30;1.50;;;11.90;78.30;;;;;;4883151;29;20037;-81
2022/11/03 02:29:04;;;;;;;6.13;1.88;;;11.90;77.60;;;;;;4883085;29;20028;-81
2022/11/03 02:31:40;;;;;;;5.18;2.15;;;11.80;77.60;;;;;;4883522;29;20077;-81
2022/11/03 02:34:40;;;;;;;7.32;2.13;;;11.90;77.60;;;;;;4883027;29;20029;-80
2022/11/03 02:37:13;;;;;;;3.88;1.40;;;11.80;78.10;;;;;;4881567;29;20048;-80
2022/11/03 02:39:55;;;;;;;5.82;1.90;;;11.80;78.30;;;;;;4882923;29;20028;-80
2022/11/03 02:42:23;;;;;;;6.70;1.63;;;11.80;78.30;;;;;;4899723;29;20381;-81
2022/11/03 02:44:52;;;;;;;6.65;1.98;;;11.80;78.20;;;;;;4882714;29;20076;-80
2022/11/03 02:47:20;;;;;;;9.48;2.05;;;11.80;78.10;;;;;;4882539;29;20036;-80
2022/11/03 02:49:48;;;;;;;6.88;1.90;;;11.80;78.20;;;;;;4882336;29;20028;-80
2022/11/03 02:52:36;;;;;;;8.48;1.70;;;11.80;78.40;;;;;;4882363;29;20387;-80
2022/11/03 02:55:24;;;;;;;7.35;1.95;;;11.80;78.30;;;;;;4882393;29;20031;-80
2022/11/03 02:58:14;;;;;;;9.00;1.80;;;11.80;78.30;;;;;;4882234;29;20044;-79
2022/11/03 03:01:21;;;;;;;7.90;1.75;;;11.80;78.20;;;;;;4882499;29;20456;-79
2022/11/03 03:03:54;;;;;;;9.55;1.90;;;11.80;78.10;;;;;;4870603;29;20477;-78
2022/11/03 03:06:29;;;;;;;4.20;1.50;;;11.80;78.10;;;;;;4863796;29;20037;-80
2022/11/03 03:09:01;;;;;;;7.22;1.70;;;11.90;78.10;;;;;;4880756;29;20037;-80
2022/11/03 03:11:37;;;;;;;6.10;2.00;;;11.90;78.10;;;;;;4863541;29;20033;-80
2022/11/03 03:14:13;;;;;;;9.07;2.00;;;11.90;78.10;;;;;;4863491;29;20032;-80
2022/11/03 03:16:57;;;;;;;9.23;2.22;;;11.90;78.10;;;;;;4863635;29;20036;-81
2022/11/03 03:19:25;;;;;;;9.45;2.20;;;11.90;78.10;;;;;;4863242;29;20030;-80
2022/11/03 03:21:53;;;;;;;9.68;1.70;;;11.90;78.10;;;;;;4863305;29;20408;-80
2022/11/03 03:24:32;;;;;;;5.78;1.80;;;11.90;78.10;;;;;;4863148;29;20025;-80
2022/11/03 03:27:02;;;;;;;5.55;1.25;;;11.90;78.10;;;;;;4863233;29;20392;-80
2022/11/03 03:29:35;;;;;;;7.35;1.90;;;11.90;78.10;;;;;;4863311;29;20040;-80
2022/11/03 03:32:06;;;;;;;7.50;1.83;;;11.90;78.20;;;;;;4863358;29;20033;-81
2022/11/03 03:34:34;;;;;;;7.50;1.88;;;11.90;78.20;;;;;;4863105;29;20507;-79
2022/11/03 03:37:01;;;;;;;5.75;1.40;;;11.90;78.20;;;;;;4862184;29;20574;-80
2022/11/03 03:39:34;;;;;;;5.63;1.70;;;11.80;78.20;;;;;;4862886;29;20040;-80
2022/11/03 03:42:01;;;;;;;;;;;11.90;78.30;;;;;;4880102;29;20580;-81
2022/11/03 03:44:27;;;;;;;4.05;1.63;;;11.80;78.20;;;;;;4879793;29;19912;-80
2022/11/03 03:47:01;;;;;;;7.82;1.98;;;11.80;78.20;;;;;;4879702;29;20483;-81
2022/11/03 03:49:27;;;;;;;8.10;1.83;;;11.80;78.30;;;;;;4862871;29;20545;-81
2022/11/03 03:51:53;;;;;;;6.85;1.60;;;11.80;78.30;;;;;;4860127;29;20144;-81
2022/11/03 03:54:18;;;;;;;5.45;1.65;;;11.80;78.40;;;;;;4862946;29;20112;-80
2022/11/03 03:56:51;;;;;;;5.65;1.67;;;11.80;78.60;;;;;;4862872;29;20041;-79
2022/11/03 03:59:17;;;;;;;6.30;1.65;;;11.80;78.60;;;;;;4862830;29;20029;-81
2022/11/03 04:01:42;;;;;;;6.95;1.50;;;11.80;78.50;;;;;;4862729;29;20032;-80
2022/11/03 04:04:08;;;;;;;4.93;1.52;;;11.80;78.70;;;;;;4862245;29;20119;-80
2022/11/03 04:06:34;;;;;;;5.13;1.63;;;11.80;78.70;;;;;;4879385;29;20453;-81
2022/11/03 04:08:59;;;;;;;6.90;1.90;;;11.90;78.70;;;;;;4862404;29;20186;-80
2022/11/03 04:22:23;;;;;;;8.02;1.90;;;11.90;78.50;;;;;;4879388;29;20053;-80
2022/11/03 04:24:50;;;;;;;7.38;1.80;;;11.90;78.40;;;;;;4862271;29;20025;-79
2022/11/03 04:27:35;;;;;;;8.95;1.77;;;11.90;78.40;;;;;;4879056;29;20548;-80
2022/11/03 04:30:16;;;;;;;7.30;1.60;;;11.90;79.10;;;;;;4862222;29;20033;-79
2022/11/03 04:32:50;;;;;;;6.82;1.80;;;11.90;78.50;;;;;;4862206;29;20452;-79
2022/11/03 04:35:22;;;;;;;5.65;1.67;;;11.90;78.50;;;;;;4862428;29;20497;-80
2022/11/03 04:37:54;;;;;;;6.30;1.50;;;12.00;78.50;;;;;;4862110;29;20032;-79
2022/11/03 04:40:20;;;;;;;5.07;1.42;;;12.00;78.50;;;;;;4878826;29;20029;-78
2022/11/03 04:42:46;;;;;;;6.30;1.48;;;12.00;78.60;;;;;;4862161;29;20051;-80
2022/11/03 04:45:27;;;;;;;7.47;1.77;;;12.00;78.50;;;;;;4862095;29;20488;-80
2022/11/03 04:47:53;;;;;;;5.45;1.63;;;12.00;78.50;;;;;;4862126;29;20072;-80
2022/11/03 04:50:21;;;;;;;5.68;1.83;;;12.00;78.50;;;;;;4862110;29;20462;-80
2022/11/03 04:52:50;;;;;;;5.00;1.40;;;12.00;78.50;;;;;;4859527;29;20440;-81
2022/11/03 04:55:18;;;;;;;4.13;1.27;;;12.10;78.70;;;;;;4862042;29;20049;-80
2022/11/03 04:57:44;;;;;;;5.97;1.50;;;12.10;78.70;;;;;;4878695;29;20477;-81
2022/11/03 05:00:18;;;;;;;6.30;1.98;;;12.10;78.60;;;;;;4861747;29;20029;-80
2022/11/03 05:02:48;;;;;;;7.03;1.80;;;12.10;78.60;;;;;;4878329;29;20033;-80
2022/11/03 05:05:19;;;;;;;6.15;1.20;;;12.10;78.60;;;;;;4861607;29;20076;-80
2022/11/03 05:07:48;;;;;;;5.95;1.45;;;12.10;78.60;;;;;;4878360;29;20033;-80
2022/11/03 05:10:19;;;;;;;6.80;1.27;;;12.10;78.60;;;;;;4861740;29;20045;-80
2022/11/03 05:12:47;;;;;;;7.07;1.77;;;12.10;78.60;;;;;;4861812;29;20169;-80
2022/11/03 05:15:39;;;;;;;6.53;1.52;;;12.10;78.60;;;;;;4878417;29;20037;-79
2022/11/03 05:18:23;;;;;;;5.13;1.52;;;12.10;78.60;;;;;;4861543;29;20098;-80
2022/11/03 05:20:55;;;;;;;5.95;1.80;;;12.10;78.60;;;;;;4861816;29;20052;-79
2022/11/03 05:23:21;;;;;;;6.28;1.50;;;12.10;78.60;;;;;;4878139;29;20073;-80
2022/11/03 05:25:51;;;;;;;5.45;1.35;;;12.10;78.50;;;;;;4861561;29;20061;-80
2022/11/03 05:28:34;;;;;;;7.25;1.60;;;12.20;78.60;;;;;;4861412;29;20467;-80
2022/11/03 05:31:00;;;;;;;5.28;1.48;;;12.20;78.60;;;;;;4861789;29;20114;-80
2022/11/03 05:33:33;;;;;;;6.53;1.70;;;12.20;78.60;;;;;;4861203;29;20072;-80
2022/11/03 05:36:11;;;;;;;3.33;1.25;;;12.20;78.70;;;;;;4861582;29;20029;-81
2022/11/03 05:38:37;;;;;;;5.18;1.50;;;12.20;78.70;;;;;;4859326;29;20130;-80
2022/11/03 05:41:10;;;;;;;5.07;1.30;;;12.20;78.70;;;;;;4861439;29;20022;-80
2022/11/03 05:43:36;;;;;;;6.30;1.50;;;12.20;78.70;;;;;;4861172;29;20041;-80
2022/11/03 05:46:02;;;;;;;6.32;1.35;;;12.20;79.00;;;;;;4861447;29;20036;-80
2022/11/03 05:48:34;;;;;;;2.80;1.27;;;12.20;79.10;;;;;;4861420;29;20029;-80
2022/11/03 05:51:09;;;;;;;7.50;1.50;;;12.10;79.00;;;;;;4878157;29;20037;-81
2022/11/03 05:53:43;;;;;;;6.53;1.80;;;12.10;79.00;;;;;;4861230;29;20128;-80
2022/11/03 05:56:17;;;;;;;5.75;1.60;;;12.20;79.20;;;;;;4861124;29;20500;-80
2022/11/03 05:58:45;;;;;;;6.88;2.00;;;12.10;79.10;;;;;;4861597;29;20119;-79
2022/11/03 06:01:32;;;;;;;7.93;1.60;;;12.20;79.10;;;;;;4864275;29;20033;-80
2022/11/03 06:04:21;;;;;;;5.35;1.88;;;12.10;79.10;;;;;;4864812;29;20096;-80
2022/11/03 06:06:53;;;;;;;10.05;1.83;;;12.10;79.10;;;;;;4864822;29;20560;-81
2022/11/03 06:09:23;;;;;;;4.95;1.70;;;12.10;79.20;;;;;;4864852;29;20123;-80
2022/11/03 06:11:51;;;;;;;4.32;1.42;;;12.10;79.20;;;;;;4881469;29;20040;-81
2022/11/03 06:14:22;;;;;;;8.40;1.80;;;12.10;79.30;;;;;;4864733;29;20511;-80
2022/11/03 06:17:06;;;;;;;7.38;1.80;;;12.10;79.40;;;;;;4864452;29;20029;-80
2022/11/03 06:19:38;;;;;;;6.50;1.67;;;12.10;79.50;;;;;;4864480;29;20025;-80
2022/11/03 06:22:27;;;;;;;6.45;1.90;;;12.10;79.40;;;;;;4864506;29;20033;-80
2022/11/03 06:24:58;;;;;;;8.02;1.60;;;12.10;79.50;;;;;;4861655;29;20465;-79
2022/11/03 06:27:28;;;;;;;6.60;1.77;;;12.10;79.50;;;;;;4864495;29;20469;-80
2022/11/03 06:30:02;;;;;;;5.25;1.50;;;12.20;79.50;;;;;;4864332;29;20453;-79
2022/11/03 06:32:29;;;;;;;4.32;1.70;;;12.20;79.50;;;;;;4864214;29;20076;-80
2022/11/03 06:34:57;;;;;;;6.90;1.65;;;12.20;79.50;;;;;;4864233;29;20508;-80
2022/11/03 06:37:29;;;;;;;4.13;1.60;;;12.20;79.40;;;;;;4864278;29;20371;-79
2022/11/03 06:40:01;;;;;;;7.40;2.20;;;12.20;79.50;;;;;;4864213;29;20025;-79
2022/11/03 06:42:33;;;;;;;5.90;1.90;;;12.20;79.50;;;;;;4863987;29;20037;-80
2022/11/03 06:45:02;;;;;;;5.68;1.73;;;12.20;79.50;;;;;;4864001;29;20029;-79
2022/11/03 06:47:28;;;;;;;6.00;2.00;;;12.20;79.50;;;;;;4880673;29;20032;-80
2022/11/03 06:49:57;;;;;;;7.55;1.98;;;12.20;81.00;;;;;;4863984;29;20029;-81
2022/11/03 06:52:29;;;;;;;7.13;2.00;;;12.20;81.30;;;;;;4863933;29;20029;-81
2022/11/03 06:55:04;;;;;;;4.35;1.40;;;12.20;81.20;;;;;;4864208;29;20033;-80
2022/11/03 06:57:34;;;;;;;6.55;1.60;;;12.20;81.10;;;;;;4863763;29;20389;-80
2022/11/03 07:00:00;;;;;;;3.65;1.50;;;12.30;81.40;;;;;;4880594;29;20021;-80
2022/11/03 07:02:59;;;;;;;4.93;1.70;;;12.30;81.70;;;;;;4863697;29;20432;-80
2022/11/03 07:05:30;;;;;;;9.68;2.05;;;12.30;81.50;;;;;;4863419;29;20415;-80
2022/11/03 07:07:59;;;;;;;6.25;1.40;;;12.30;81.20;;;;;;4863799;29;20036;-81
2022/11/03 07:10:28;;;;;;;3.35;1.30;;;12.30;81.80;;;;;;4880257;29;20036;-80
2022/11/03 07:12:59;;;;;;;6.22;1.88;;;12.30;82.40;;;;;;4862952;29;20040;-80
2022/11/03 07:15:36;;;;;;;3.22;1.50;;;12.40;82.10;;;;;;4863555;29;20029;-80
2022/11/03 07:18:03;;;;;;;3.10;1.30;;;12.40;82.10;;;;;;4880717;29;20029;-79
2022/11/03 07:20:29;;;;;;;3.10;1.20;;;12.40;83.30;;;;;;4880441;29;20044;-80
2022/11/03 07:23:00;;;;;;;4.60;1.60;;;12.40;83.20;;;;;;4863837;29;20025;-80
2022/11/03 07:25:25;;;;;;;8.45;2.22;;;12.40;82.70;;;;;;4863902;29;20120;-80
2022/11/03 07:27:53;;;;;;;5.07;1.60;;;12.40;82.30;;;;;;4863896;29;20446;-80
2022/11/03 07:30:20;;;;;;;5.55;1.80;;;12.50;82.00;;;;;;4863789;29;20636;-80
2022/11/03 07:32:54;;;;;;;5.72;1.80;;;12.50;82.30;;;;;;4880726;29;20489;-80
2022/11/03 07:35:35;;;;;;;5.40;1.63;;;12.50;82.20;;;;;;4881190;29;20496;-79
2022/11/03 07:38:12;;;;;;;6.25;1.65;;;12.50;81.90;;;;;;4864211;29;20318;-80
2022/11/03 07:40:39;;;;;;;7.45;1.73;;;12.60;82.00;;;;;;4863438;29;20540;-80
2022/11/03 07:43:32;;;;;;;8.00;1.90;;;12.60;81.80;;;;;;4864921;29;20031;-82
2022/11/03 07:46:03;;;;;;;7.60;1.70;;;12.60;81.90;;;;;;4865995;29;20519;-80
2022/11/03 07:48:33;;;;;;;5.07;1.65;;;12.60;82.00;;;;;;4865379;29;20037;-80
2022/11/03 07:51:11;;;;;;;5.75;1.80;;;12.70;81.90;;;;;;4865498;29;20029;-80
2022/11/03 07:53:42;;;;;;;5.60;1.33;;;12.70;81.60;;;;;;4863508;29;20033;-81
2022/11/03 07:56:35;;;;;;;8.40;2.10;;;12.80;81.70;;;;;;4886466;29;20028;-81
2022/11/03 07:59:12;;;;;;;6.72;1.95;;;12.80;81.60;;;;;;4880033;29;20052;-80
2022/11/03 08:01:42;;;;;;;6.43;1.92;;;12.90;82.10;;;;;;4880305;29;20025;-80
2022/11/03 08:04:12;;;;;;;6.25;2.10;;;12.90;81.20;;;;;;4880914;29;20021;-80
2022/11/03 08:06:37;;;;;;;5.65;1.80;;;12.90;81.00;;;;;;4881539;29;20033;-81
2022/11/03 08:09:03;;;;;;;5.78;1.85;;;13.00;80.80;;;;;;4898593;29;20029;-80
2022/11/03 08:11:29;;;;;;;5.68;1.75;;;13.00;80.80;;;;;;4898936;29;20040;-80
2022/11/03 08:13:55;;;;;;;4.95;1.60;;;13.00;80.60;;;;;;4898883;29;20021;-80
2022/11/03 08:16:21;;;;;;;4.68;1.50;;;13.10;81.20;;;;;;4882861;29;20033;-81
2022/11/03 08:18:46;;;;;;;6.43;1.60;;;13.10;81.10;;;;;;4881492;29;20481;-80
2022/11/03 08:21:12;;;;;;;6.28;1.80;;;13.10;81.20;;;;;;4886824;29;20037;-80
2022/11/03 08:23:38;;;;;;;4.10;1.55;;;13.20;81.00;;;;;;4883396;29;20233;-79
2022/11/03 08:26:06;;;;;;;7.75;1.95;;;13.20;81.00;;;;;;4867101;29;20029;-80
2022/11/03 08:28:33;;;;;;;5.13;1.80;;;13.20;80.90;;;;;;4866218;29;20493;-80
2022/11/03 08:31:03;;;;;;;5.18;1.60;;;13.20;80.70;;;;;;4865533;29;20536;-81
2022/11/03 08:33:32;;;;;;;7.80;2.00;;;13.30;80.70;;;;;;4868235;29;20500;-82
2022/11/03 08:35:58;;;;;;;9.02;1.77;;;13.30;80.50;;;;;;4881728;29;20089;-82
2022/11/03 08:38:24;;;;;;;6.30;2.05;;;13.30;80.40;;;;;;4863770;29;20040;-82
2022/11/03 08:40:50;;;;;;;4.35;1.60;;;13.40;80.50;;;;;;4860056;29;20037;-81
2022/11/03 08:43:16;;;;;;;6.13;1.90;;;13.40;80.60;;;;;;4862899;29;20030;-82
2022/11/03 08:45:41;;;;;;;4.63;1.50;;;13.40;80.40;;;;;;4862974;29;20031;-81
2022/11/03 08:48:16;;;;;;;5.32;1.75;;;13.40;80.40;;;;;;4862767;29;20642;-81
2022/11/03 08:50:53;;;;;;;4.93;1.63;;;13.40;80.20;;;;;;4862744;29;20043;-81
2022/11/03 08:53:23;;;;;;;4.97;1.60;;;13.50;80.40;;;;;;4878988;29;20024;-81
2022/11/03 08:55:52;;;;;;;6.10;1.67;;;13.50;80.20;;;;;;4862258;29;20485;-82
2022/11/03 08:58:18;;;;;;;4.78;1.45;;;13.50;80.30;;;;;;4862633;29;20116;-82
2022/11/03 09:00:43;;;;;;;8.05;1.60;;;13.50;80.10;;;;;;4862531;29;20025;-83
2022/11/03 09:03:09;;;;;;;6.63;1.73;;;13.50;80.10;;;;;;4862016;29;20029;-81
2022/11/03 09:05:35;;;;;;;5.45;1.83;;;13.60;80.00;;;;;;4862067;29;20052;-82
2022/11/03 09:08:01;;;;;;;5.93;1.88;;;13.70;79.70;;;;;;4878648;29;20456;-82
2022/11/03 09:10:28;;;;;;;4.68;1.40;;;13.70;79.80;;;;;;4862193;29;20031;-81
2022/11/03 09:12:54;;;;;;;6.78;1.60;;;13.80;79.60;;;;;;4861857;29;20065;-82
2022/11/03 09:15:20;;;;;;;5.75;1.80;;;13.80;79.40;;;;;;4861923;29;20489;-81
2022/11/03 09:17:45;;;;;;;6.95;1.92;;;13.90;79.40;;;;;;4862033;29;20132;-81
2022/11/03 09:20:11;;;;;;;5.55;1.85;;;13.90;79.10;;;;;;4862042;29;20089;-81
2022/11/03 09:22:37;;;;;;;3.40;1.40;;;14.00;79.50;;;;;;4862087;29;20025;-81
2022/11/03 09:25:06;;;;;;;5.45;1.70;;;14.00;79.70;;;;;;4878672;29;20033;-82
2022/11/03 09:27:31;;;;;;;5.78;1.50;;;14.00;79.40;;;;;;4861814;29;20515;-82
2022/11/03 09:29:57;;;;;;;3.92;1.70;;;14.10;79.70;;;;;;4861832;29;20037;-82
2022/11/03 09:32:23;;;;;;;3.97;1.67;;;14.10;79.90;;;;;;4878591;29;20461;-82
2022/11/03 09:34:48;;;;;;;3.65;1.60;;;14.10;80.20;;;;;;4877924;29;20397;-82
2022/11/03 09:37:15;;;;;;;4.25;1.50;;;14.10;80.30;;;;;;4861881;29;20477;-82
2022/11/03 09:39:41;;;;;;;3.75;1.52;;;14.10;80.10;;;;;;4861756;29;20025;-82
2022/11/03 09:42:17;;;;;;;4.50;1.67;;;14.20;80.00;;;;;;4878682;29;20029;-82
2022/11/03 09:44:47;;;;;;;4.63;1.65;;;14.30;80.50;;;;;;4861697;29;20621;-81
2022/11/03 09:47:28;;;;;;;4.85;1.65;;;14.30;80.20;;;;;;4861831;29;20508;-82
2022/11/03 09:49:54;;;;;;;3.03;1.30;;;14.40;79.80;;;;;;4861627;29;20033;-82
2022/11/03 09:52:23;;;;;;;5.70;1.48;;;14.50;79.80;;;;;;4861746;29;20036;-82
2022/11/03 09:54:51;;;;;;;2.50;1.30;;;14.50;79.80;;;;;;4861813;29;20424;-82
2022/11/03 09:57:28;;;;;;;4.53;1.48;;;14.60;79.80;;;;;;4859121;29;20037;-82
2022/11/03 09:59:54;;;;;;;4.28;1.40;;;14.70;79.70;;;;;;4862031;29;20464;-83
2022/11/03 10:02:29;;;;;;;6.22;1.40;;;14.70;79.70;;;;;;4878521;29;20161;-83
2022/11/03 10:05:04;;;;;;;3.30;1.25;;;14.70;79.60;;;;;;4862156;29;20133;-83
2022/11/03 10:07:30;;;;;;;3.53;1.33;;;14.70;79.80;;;;;;4878384;29;20406;-82
2022/11/03 10:09:58;;;;;;;5.95;1.80;;;14.70;79.80;;;;;;4862136;29;20147;-81
2022/11/03 10:12:26;;;;;;;3.63;1.50;;;14.70;80.10;;;;;;4878463;29;20390;-83
2022/11/03 10:14:53;;;;;;;2.80;1.20;;;14.70;79.80;;;;;;4862095;29;20081;-82
2022/11/03 10:17:28;;;;;;;4.95;1.85;;;14.70;80.10;;;;;;4861722;29;20065;-82
2022/11/03 10:19:56;;;;;;;4.72;1.48;;;14.60;80.30;;;;;;4861651;29;20417;-83
2022/11/03 10:22:23;;;;;;;4.55;1.60;;;14.60;80.60;;;;;;4861394;29;20044;-81
2022/11/03 10:25:24;;;;;;;5.00;1.60;;;14.60;80.40;;;;;;4861054;29;20025;-83
2022/11/03 10:27:50;;;;;;;3.15;1.25;;;14.60;80.30;;;;;;4861318;29;20604;-82
2022/11/03 10:30:15;;;;;;;6.78;1.55;;;14.70;80.20;;;;;;4861356;29;20029;-83
2022/11/03 10:32:41;;;;;;;6.88;1.63;;;14.70;80.30;;;;;;4861403;29;20353;-83
2022/11/03 10:35:40;;;;;;;4.10;1.60;;;14.70;79.80;;;;;;4861376;29;20528;-83
2022/11/03 10:38:35;;;;;;;5.35;1.40;;;14.70;79.50;;;;;;4861056;29;20037;-83
2022/11/03 10:41:22;;;;;;;4.50;1.42;;;14.70;79.80;;;;;;4861362;29;20489;-82
2022/11/03 10:44:06;;;;;;;5.55;1.20;;;14.80;79.80;;;;;;4861372;29;20062;-82
2022/11/03 10:46:35;;;;;;;3.05;1.45;;;14.80;79.90;;;;;;4880385;29;20453;-82
2022/11/03 10:49:20;;;;;;;5.35;1.52;;;14.80;79.90;;;;;;4864616;29;20029;-82
2022/11/03 10:51:51;;;;;;;3.42;1.10;;;14.80;79.50;;;;;;4864501;29;20489;-83
2022/11/03 10:54:21;;;;;;;3.95;1.25;;;14.80;79.80;;;;;;4864445;29;20037;-82
2022/11/03 10:56:49;;;;;;;4.57;1.40;;;14.70;79.40;;;;;;4864638;29;20485;-83
2022/11/03 10:59:20;;;;;;;5.05;1.40;;;14.80;80.00;;;;;;4849375;29;20489;-83
2022/11/03 11:01:46;;;;;;;5.47;1.58;;;14.80;80.00;;;;;;4864366;29;20029;-82
2022/11/03 11:04:17;;;;;;;4.13;1.20;;;14.80;79.70;;;;;;4863672;29;20446;-81
2022/11/03 11:06:43;;;;;;;5.00;1.55;;;14.80;80.10;;;;;;4880571;29;20549;-82
2022/11/03 11:09:13;;;;;;;4.43;1.40;;;14.80;80.00;;;;;;4864058;29;20037;-82
2022/11/03 11:11:38;;;;;;;1.83;1.10;;;14.80;80.10;;;;;;4864199;29;20045;-82
2022/11/03 11:14:29;;;;;;;3.60;1.48;;;14.90;80.30;;;;;;4864063;29;20429;-82
2022/11/03 11:16:59;;;;;;;5.05;1.35;;;14.90;79.80;;;;;;4880540;29;20037;-82
2022/11/03 11:19:26;;;;;;;4.97;1.50;;;14.90;79.30;;;;;;4880651;29;20501;-83
2022/11/03 11:21:52;;;;;;;6.35;1.65;;;15.00;79.10;;;;;;4863903;29;20032;-82
2022/11/03 11:24:41;;;;;;;4.60;1.40;;;15.00;79.30;;;;;;4863451;29;20033;-82
2022/11/03 11:27:41;;;;;;;3.40;1.40;;;15.10;78.40;;;;;;4875304;29;20096;-82
2022/11/03 11:30:29;;;;;;;2.55;1.05;;;15.20;78.10;;;;;;4880363;29;20374;-82
2022/11/03 11:33:00;;;;;;;4.75;1.42;;;15.20;77.90;;;;;;4863442;29;20044;-82
2022/11/03 11:35:28;;;;;;;3.45;1.35;;;15.20;77.90;;;;;;4863544;29;20044;-82
2022/11/03 11:37:54;;;;;;;6.45;1.60;;;15.20;77.50;;;;;;4863850;29;20092;-83
2022/11/03 11:40:23;;;;;;;5.45;1.60;;;15.20;77.00;;;;;;4863662;29;20033;-83
2022/11/03 11:43:09;;;;;;;3.53;1.40;;;15.30;76.80;;;;;;4863647;29;20041;-82
2022/11/03 11:46:12;;;;;;;2.88;1.17;;;15.30;77.00;;;;;;4863418;29;20401;-83
2022/11/03 11:48:38;;;;;;;3.63;1.17;;;15.30;76.70;;;;;;4863381;29;20069;-82
2022/11/03 11:51:11;;;;;;;5.78;1.80;;;15.40;76.60;;;;;;4863379;29;20465;-82
2022/11/03 11:53:41;;;;;;;3.83;1.48;;;15.50;76.10;;;;;;4863614;29;20037;-82
2022/11/03 11:56:12;;;;;;;3.60;1.23;;;15.50;75.60;;;;;;4862976;29;20032;-83
2022/11/03 11:58:50;;;;;;;4.53;1.80;;;15.60;75.20;;;;;;4862591;29;20033;-81
2022/11/03 12:01:29;;;;;;;3.30;1.23;;;15.70;74.90;;;;;;4862915;29;20032;-81
2022/11/03 12:04:21;;;;;;;4.25;1.50;;;15.70;74.60;;;;;;4863025;29;20029;-81
2022/11/03 12:06:46;;;;;;;4.68;1.20;;;15.80;75.00;;;;;;4862694;29;20564;-82
2022/11/03 12:09:12;;;;;;;3.38;1.20;;;15.80;74.80;;;;;;4862786;29;20057;-82
2022/11/03 12:11:55;;;;;;;2.92;1.30;;;15.90;75.00;;;;;;4862737;29;20037;-82
2022/11/03 12:14:25;;;;;;;5.97;1.23;;;15.90;74.30;;;;;;4863011;29;20485;-82
2022/11/03 12:16:52;;;;;;;3.95;1.27;;;16.00;74.80;;;;;;4862590;29;20422;-82
2022/11/03 12:19:43;;;;;;;3.47;1.20;;;16.00;74.30;;;;;;4879587;29;20132;-82
2022/11/03 12:22:28;;;;;;;4.70;1.40;;;16.00;73.90;;;;;;4862794;29;20029;-82
2022/11/03 12:24:59;;;;;;;3.08;1.40;;;16.10;74.20;;;;;;4862847;29;20404;-82
2022/11/03 12:27:28;;;;;;;4.25;1.60;;;16.10;75.00;;;;;;4862682;29;20068;-83
2022/11/03 12:30:01;;;;;;;4.63;1.70;;;16.10;74.90;;;;;;4862546;29;20048;-83
2022/11/03 12:32:27;;;;;;;;;;;16.00;74.70;;;;;;4848032;29;20557;-82
2022/11/03 12:34:54;;;;;;;5.80;2.08;;;16.00;76.10;;;;;;4862291;29;19911;-83
2022/11/03 12:37:20;;;;;;;4.50;1.90;;;16.00;75.70;;;;;;4862535;29;20397;-82
2022/11/03 12:39:45;;;;;;;4.30;1.42;;;16.00;75.60;;;;;;4862379;29;20025;-82
2022/11/03 12:42:11;;;;;;;4.95;1.65;;;16.00;75.20;;;;;;4862343;29;20037;-82
2022/11/03 12:44:37;;;;;;;3.13;1.70;;;16.10;75.30;;;;;;4862327;29;20512;-82
2022/11/03 12:47:03;;;;;;;3.00;1.60;;;16.10;75.00;;;;;;4861810;29;20191;-81
2022/11/03 12:49:32;;;;;;;4.80;1.48;;;16.20;74.40;;;;;;4862133;29;20549;-82
2022/11/03 12:52:06;;;;;;;4.03;1.20;;;16.20;74.90;;;;;;4862300;29;20540;-82
2022/11/03 12:54:32;;;;;;;3.90;1.63;;;16.20;75.30;;;;;;4862194;29;20506;-82
2022/11/03 12:56:59;;;;;;;3.50;1.27;;;16.20;75.60;;;;;;4879359;29;20485;-83
2022/11/03 12:59:25;;;;;;;5.95;1.42;;;16.20;75.40;;;;;;4862367;29;20033;-83
2022/11/03 13:01:51;;;;;;;3.95;1.33;;;16.20;75.30;;;;;;4861973;29;20072;-83
2022/11/03 13:04:17;;;;;;;3.75;1.30;;;16.20;75.00;;;;;;4861845;29;20033;-82
2022/11/03 13:06:43;;;;;;;3.53;1.35;;;16.20;75.00;;;;;;4862005;29;20061;-82
2022/11/03 13:09:09;;;;;;;3.38;1.30;;;16.20;74.30;;;;;;4861394;29;20591;-83
2022/11/03 13:14:21;;;;;;;4.43;1.48;;;16.20;73.90;;;;;;4878879;29;20300;-82
2022/11/03 13:16:47;;;;;;;2.55;1.17;;;16.20;73.70;;;;;;4878476;29;20037;-82
2022/11/03 13:19:12;;;;;;;3.00;1.40;;;16.30;73.50;;;;;;4859286;29;20401;-82
2022/11/03 13:21:38;;;;;;;3.05;1.50;;;16.30;73.70;;;;;;4861799;29;20251;-82
2022/11/03 13:24:04;;;;;;;3.40;1.50;;;16.30;73.20;;;;;;4861752;29;20067;-82
2022/11/03 13:26:38;;;;;;;2.72;1.05;;;16.30;72.80;;;;;;4857576;29;20045;-82
2022/11/03 13:29:05;;;;;;;1.10;0.93;;;16.30;73.10;;;;;;4857624;29;20041;-83
2022/11/03 13:31:30;;;;;;;4.20;1.35;;;16.30;73.00;;;;;;4858036;29;20050;-83
2022/11/03 13:33:56;;;;;;;2.67;1.48;;;16.30;72.80;;;;;;4842218;29;20047;-83